createdAt,value
2018-12-25T00:00:03.231Z,103300.78
2018-12-25T00:02:32.513Z,103292.86
2018-12-25T00:05:01.896Z,103293.44
2018-12-25T00:07:31.294Z,103285.94
2018-12-25T00:10:00.712Z,103289.88
2018-12-25T00:12:30.010Z,103289.44
2018-12-25T00:14:59.284Z,103300.93
2018-12-25T00:17:28.640Z,103295.86
2018-12-25T00:19:57.917Z,103302.41
2018-12-25T00:22:27.182Z,103302.41
2018-12-25T00:24:56.510Z,103300.16
2018-12-25T00:27:25.777Z,103299.88
2018-12-25T00:29:55.115Z,103304.00
2018-12-25T00:32:24.390Z,103300.41
2018-12-25T00:34:53.858Z,103300.33
2018-12-25T00:37:23.089Z,103305.48
2018-12-25T00:39:52.357Z,103304.99
2018-12-25T00:42:21.593Z,103304.53
2018-12-25T00:44:50.892Z,103304.97
2018-12-25T00:47:20.172Z,103298.20
2018-12-25T00:49:49.594Z,103300.89
2018-12-25T00:52:18.935Z,103294.28
2018-12-25T00:54:48.144Z,103291.95
2018-12-25T00:57:17.418Z,103290.58
2018-12-25T00:59:46.705Z,103284.71
2018-12-25T01:02:15.977Z,103279.58
2018-12-25T01:04:45.208Z,103285.20
2018-12-25T01:07:14.498Z,103284.88
2018-12-25T01:09:43.810Z,103289.33
2018-12-25T01:12:13.103Z,103295.59
2018-12-25T01:14:42.427Z,103291.87
2018-12-25T01:17:11.701Z,103303.27
2018-12-25T01:19:40.991Z,103303.89
2018-12-25T01:22:10.263Z,103299.02
2018-12-25T01:24:39.503Z,103300.13
2018-12-25T01:27:08.902Z,103282.77
2018-12-25T01:29:38.226Z,103294.97
2018-12-25T01:32:07.525Z,103293.20
2018-12-25T01:34:36.819Z,103299.55
2018-12-25T01:37:06.124Z,103300.48
2018-12-25T01:39:35.426Z,103310.27
2018-12-25T01:42:04.661Z,103305.45
2018-12-25T01:44:34.015Z,103310.28
2018-12-25T01:47:03.335Z,103312.97
2018-12-25T01:49:32.585Z,103307.45
2018-12-25T01:52:01.950Z,103314.87
2018-12-25T01:54:31.179Z,103309.77
2018-12-25T01:57:00.623Z,103303.58
2018-12-25T01:59:29.956Z,103300.44
2018-12-25T02:01:59.195Z,103295.33
2018-12-25T02:04:28.447Z,103290.45
2018-12-25T02:06:57.684Z,103288.86
2018-12-25T02:09:26.892Z,103284.86
2018-12-25T02:11:56.115Z,103280.48
2018-12-25T02:14:25.341Z,103273.49
2018-12-25T02:16:54.627Z,103273.49
2018-12-25T02:19:23.920Z,103271.31
2018-12-25T02:21:53.218Z,103275.74
2018-12-25T02:24:22.444Z,103272.23
2018-12-25T02:26:51.684Z,103280.19
2018-12-25T02:29:20.916Z,103278.87
2018-12-25T02:31:50.230Z,103274.42
2018-12-25T02:34:19.440Z,103275.44
2018-12-25T02:36:48.663Z,103284.22
2018-12-25T02:39:17.932Z,103275.14
2018-12-25T02:41:47.251Z,103273.41
2018-12-25T02:44:16.489Z,103279.08
2018-12-25T02:46:45.745Z,103268.97
2018-12-25T02:49:14.976Z,103271.00
2018-12-25T02:51:44.249Z,103272.33
2018-12-25T02:54:13.523Z,103275.52
2018-12-25T02:56:42.853Z,103270.30
2018-12-25T02:59:12.124Z,103268.61
2018-12-25T03:01:41.455Z,103263.08
2018-12-25T03:04:10.697Z,103263.44
2018-12-25T03:06:39.950Z,103243.96
2018-12-25T03:09:09.228Z,103243.96
2018-12-25T03:11:38.481Z,103243.96
2018-12-25T03:14:07.723Z,103242.30
2018-12-25T03:16:37.053Z,103241.28
2018-12-25T03:19:06.273Z,103241.39
2018-12-25T03:21:35.571Z,103247.16
2018-12-25T03:24:04.831Z,103248.17
2018-12-25T03:26:34.136Z,103250.94
2018-12-25T03:29:03.363Z,103250.20
2018-12-25T03:31:32.589Z,103249.77
2018-12-25T03:34:01.843Z,103250.18
2018-12-25T03:36:31.082Z,103246.14
2018-12-25T03:39:00.319Z,103241.38
2018-12-25T03:41:29.625Z,103237.15
2018-12-25T03:43:58.944Z,103239.77
2018-12-25T03:46:28.228Z,103232.69
2018-12-25T03:48:57.477Z,103238.38
2018-12-25T03:51:26.724Z,103249.83
2018-12-25T03:53:56.050Z,103238.89
2018-12-25T03:56:25.306Z,103225.00
2018-12-25T03:58:54.528Z,103252.95
2018-12-25T04:01:23.855Z,103252.95
2018-12-25T04:03:53.087Z,103248.96
2018-12-25T04:06:22.347Z,103252.06
2018-12-25T04:08:51.621Z,103243.04
2018-12-25T04:11:20.851Z,103246.45
2018-12-25T04:13:50.089Z,103241.52
2018-12-25T04:16:19.459Z,103238.45
2018-12-25T04:18:48.736Z,103238.03
2018-12-25T04:21:18.042Z,103235.02
2018-12-25T04:23:47.369Z,103232.77
2018-12-25T04:26:16.583Z,103226.58
2018-12-25T04:28:45.850Z,103232.40
2018-12-25T04:31:15.134Z,103235.45
2018-12-25T04:33:44.374Z,103235.34
2018-12-25T04:36:13.589Z,103231.02
2018-12-25T04:38:42.824Z,103243.26
2018-12-25T04:41:12.079Z,103242.83
2018-12-25T04:43:41.330Z,103225.84
2018-12-25T04:46:10.652Z,103234.52
2018-12-25T04:48:39.883Z,103239.27
2018-12-25T04:51:09.165Z,103248.53
2018-12-25T04:53:38.440Z,103232.28
2018-12-25T04:56:07.732Z,103239.34
2018-12-25T04:58:37.008Z,103236.55
2018-12-25T05:01:06.339Z,103234.88
2018-12-25T05:03:35.593Z,103236.41
2018-12-25T05:06:04.940Z,103241.16
2018-12-25T05:08:34.254Z,103236.72
2018-12-25T05:11:03.510Z,103242.45
2018-12-25T05:13:32.847Z,103251.16
2018-12-25T05:16:02.104Z,103251.71
2018-12-25T05:18:31.314Z,103245.59
2018-12-25T05:21:00.660Z,103253.09
2018-12-25T05:23:29.935Z,103252.59
2018-12-25T05:25:59.257Z,103264.77
2018-12-25T05:28:28.477Z,103256.02
2018-12-25T05:30:57.713Z,103255.14
2018-12-25T05:33:26.969Z,103253.78
2018-12-25T05:35:56.203Z,103253.83
2018-12-25T05:38:25.451Z,103249.77
2018-12-25T05:40:54.745Z,103242.77
2018-12-25T05:43:24.003Z,103233.50
2018-12-25T05:45:53.266Z,103233.50
2018-12-25T05:48:22.540Z,103228.18
2018-12-25T05:50:51.849Z,103232.19
2018-12-25T05:53:21.078Z,103234.19
2018-12-25T05:55:50.311Z,103234.67
2018-12-25T05:58:19.579Z,103228.87
2018-12-25T06:00:48.852Z,103237.67
2018-12-25T06:03:18.067Z,103234.47
2018-12-25T06:05:47.397Z,103237.19
2018-12-25T06:08:16.667Z,103228.56
2018-12-25T06:10:45.929Z,103217.56
2018-12-25T06:13:15.254Z,103216.89
2018-12-25T06:15:44.500Z,103214.82
2018-12-25T06:18:13.742Z,103218.58
2018-12-25T06:20:43.025Z,103217.77
2018-12-25T06:23:12.343Z,103216.39
2018-12-25T06:25:41.644Z,103226.44
2018-12-25T06:28:10.909Z,103233.80
2018-12-25T06:30:40.132Z,103223.77
2018-12-25T06:33:09.407Z,103224.31
2018-12-25T06:35:38.645Z,103221.14
2018-12-25T06:38:07.985Z,103220.30
2018-12-25T06:40:37.232Z,103217.75
2018-12-25T06:43:06.473Z,103226.06
2018-12-25T06:45:35.751Z,103221.64
2018-12-25T06:48:05.019Z,103237.94
2018-12-25T06:50:34.283Z,103228.18
2018-12-25T06:53:03.577Z,103230.08
2018-12-25T06:55:32.790Z,103217.84
2018-12-25T06:58:02.019Z,103215.27
2018-12-25T07:00:31.374Z,103216.20
2018-12-25T07:03:00.598Z,103203.52
2018-12-25T07:05:29.851Z,103214.27
2018-12-25T07:07:59.092Z,103212.13
2018-12-25T07:10:28.476Z,103220.56
2018-12-25T07:12:57.705Z,103231.22
2018-12-25T07:15:32.998Z,103215.47
2018-12-25T07:17:56.199Z,103210.16
2018-12-25T07:20:25.445Z,103200.14
2018-12-25T07:22:54.719Z,103209.34
2018-12-25T07:25:23.987Z,103193.09
2018-12-25T07:27:53.234Z,103184.78
2018-12-25T07:30:22.495Z,103191.45
2018-12-25T07:32:52.084Z,103181.26
2018-12-25T07:35:21.359Z,103174.53
2018-12-25T07:37:50.670Z,103176.34
2018-12-25T07:40:19.992Z,103177.14
2018-12-25T07:42:49.317Z,103176.33
2018-12-25T07:45:18.585Z,103175.84
2018-12-25T07:47:47.895Z,103174.12
2018-12-25T07:50:17.094Z,103173.77
2018-12-25T07:52:46.304Z,103176.83
2018-12-25T07:55:15.577Z,103183.45
2018-12-25T07:57:44.860Z,103188.27
2018-12-25T08:00:14.132Z,103187.08
2018-12-25T08:02:43.416Z,103181.89
2018-12-25T08:05:12.664Z,103156.95
2018-12-25T08:07:41.989Z,103173.47
2018-12-25T08:10:11.230Z,103177.08
2018-12-25T08:12:40.572Z,103189.38
2018-12-25T08:15:09.830Z,103196.27
2018-12-25T08:17:39.070Z,103184.53
2018-12-25T08:20:08.338Z,103181.52
2018-12-25T08:22:37.610Z,103184.13
2018-12-25T08:25:06.867Z,103167.90
2018-12-25T08:27:36.122Z,103185.09
2018-12-25T08:30:05.468Z,103197.28
2018-12-25T08:32:34.717Z,103197.02
2018-12-25T08:35:03.950Z,103213.59
2018-12-25T08:37:33.230Z,103208.89
2018-12-25T08:40:02.565Z,103219.03
2018-12-25T08:42:31.817Z,103226.53
2018-12-25T08:45:01.058Z,103225.28
2018-12-25T08:47:30.320Z,103219.59
2018-12-25T08:49:59.580Z,103211.66
2018-12-25T08:52:28.867Z,103197.66
2018-12-25T08:54:58.189Z,103196.84
2018-12-25T08:57:27.438Z,103198.27
2018-12-25T08:59:56.801Z,103197.39
2018-12-25T09:02:26.170Z,103195.76
2018-12-25T09:04:55.505Z,103195.44
2018-12-25T09:07:24.774Z,103196.69
2018-12-25T09:09:54.019Z,103205.50
2018-12-25T09:12:23.286Z,103202.77
2018-12-25T09:14:52.545Z,103194.25
2018-12-25T09:17:21.812Z,103195.22
2018-12-25T09:19:51.051Z,103196.98
2018-12-25T09:22:20.345Z,103211.33
2018-12-25T09:24:49.628Z,103206.13
2018-12-25T09:27:18.922Z,103221.88
2018-12-25T09:29:48.162Z,103209.23
2018-12-25T09:32:17.490Z,103222.06
2018-12-25T09:34:48.032Z,103221.69
2018-12-25T09:37:16.086Z,103224.75
2018-12-25T09:39:45.400Z,103229.67
2018-12-25T09:42:14.634Z,103227.98
2018-12-25T09:44:43.884Z,103227.50
2018-12-25T09:47:13.125Z,103221.78
2018-12-25T09:49:42.407Z,103217.97
2018-12-25T09:52:11.636Z,103222.73
2018-12-25T09:54:40.983Z,103229.30
2018-12-25T09:57:10.257Z,103228.48
2018-12-25T09:59:39.598Z,103229.79
2018-12-25T10:02:08.876Z,103235.48
2018-12-25T10:04:38.144Z,103238.56
2018-12-25T10:07:07.408Z,103233.73
2018-12-25T10:09:36.673Z,103239.11
2018-12-25T10:12:05.932Z,103242.19
2018-12-25T10:14:35.207Z,103243.09
2018-12-25T10:17:04.457Z,103250.55
2018-12-25T10:19:33.711Z,103234.36
2018-12-25T10:22:05.204Z,103228.70
2018-12-25T10:24:32.475Z,103222.14
2018-12-25T10:27:01.702Z,103227.39
2018-12-25T10:29:30.972Z,103214.75
2018-12-25T10:32:00.228Z,103213.05
2018-12-25T10:34:29.634Z,103206.97
2018-12-25T10:36:58.794Z,103199.18
2018-12-25T10:39:28.086Z,103202.63
2018-12-25T10:41:57.384Z,103200.94
2018-12-25T10:44:26.697Z,103212.38
2018-12-25T10:46:55.994Z,103206.73
2018-12-25T10:49:25.314Z,103209.37
2018-12-25T10:51:54.519Z,103200.16
2018-12-25T10:54:23.760Z,103196.22
2018-12-25T10:56:53.031Z,103209.91
2018-12-25T10:59:22.414Z,103195.01
2018-12-25T11:01:51.747Z,103192.37
2018-12-25T11:04:21.104Z,103199.82
2018-12-25T11:06:50.321Z,103206.45
2018-12-25T11:09:19.587Z,103197.41
2018-12-25T11:11:49.004Z,103188.23
2018-12-25T11:14:18.348Z,103187.27
2018-12-25T11:16:47.624Z,103168.95
2018-12-25T11:19:16.940Z,103173.34
2018-12-25T11:21:46.215Z,103183.56
2018-12-25T11:24:15.473Z,103174.80
2018-12-25T11:26:44.740Z,103174.70
2018-12-25T11:29:13.982Z,103166.03
2018-12-25T11:31:43.245Z,103169.05
2018-12-25T11:34:12.642Z,103170.91
2018-12-25T11:36:41.932Z,103166.86
2018-12-25T11:39:11.244Z,103165.94
2018-12-25T11:41:40.550Z,103162.56
2018-12-25T11:44:09.808Z,103157.26
2018-12-25T11:46:39.154Z,103148.09
2018-12-25T11:49:08.536Z,103153.27
2018-12-25T11:51:38.001Z,103162.17
2018-12-25T11:54:07.546Z,103171.03
2018-12-25T11:56:36.944Z,103167.53
2018-12-25T11:59:06.377Z,103173.29
2018-12-25T12:01:35.724Z,103172.11
2018-12-25T12:04:04.962Z,103176.92
2018-12-25T12:06:34.355Z,103176.39
2018-12-25T12:09:04.872Z,103179.86
2018-12-25T12:11:34.087Z,103182.92
2018-12-25T12:14:03.394Z,103162.23
2018-12-25T12:16:32.686Z,103159.11
2018-12-25T12:19:02.006Z,103169.82
2018-12-25T12:21:31.383Z,103173.37
2018-12-25T12:24:00.778Z,103171.22
2018-12-25T12:26:30.039Z,103183.16
2018-12-25T12:28:59.383Z,103185.75
2018-12-25T12:31:28.700Z,103177.85
2018-12-25T12:33:57.989Z,103178.28
2018-12-25T12:36:27.252Z,103168.24
2018-12-25T12:38:56.585Z,103178.42
2018-12-25T12:41:25.930Z,103183.06
2018-12-25T12:43:55.188Z,103187.94
2018-12-25T12:46:24.420Z,103184.03
2018-12-25T12:48:53.674Z,103184.88
2018-12-25T12:51:22.998Z,103183.95
2018-12-25T12:53:52.316Z,103188.77
2018-12-25T12:56:21.601Z,103179.61
2018-12-25T12:58:50.920Z,103172.11
2018-12-25T13:01:20.178Z,103180.96
2018-12-25T13:03:49.524Z,103177.80
2018-12-25T13:06:18.894Z,103190.57
2018-12-25T13:08:48.149Z,103191.40
2018-12-25T13:11:17.397Z,103183.52
2018-12-25T13:13:46.697Z,103182.23
2018-12-25T13:16:16.032Z,103183.52
2018-12-25T13:18:45.298Z,103172.09
2018-12-25T13:21:14.624Z,103177.36
2018-12-25T13:23:43.884Z,103179.08
2018-12-25T13:26:13.230Z,103188.28
2018-12-25T13:28:42.610Z,103192.28
2018-12-25T13:31:11.933Z,103189.59
2018-12-25T13:33:41.234Z,103194.29
2018-12-25T13:36:10.518Z,103185.56
2018-12-25T13:38:39.804Z,103187.77
2018-12-25T13:41:09.108Z,103173.23
2018-12-25T13:43:38.404Z,103180.69
2018-12-25T13:46:07.725Z,103180.84
2018-12-25T13:48:37.380Z,103182.14
2018-12-25T13:51:06.724Z,103174.20
2018-12-25T13:53:35.978Z,103183.81
2018-12-25T13:56:05.326Z,103175.86
2018-12-25T13:58:34.660Z,103172.36
2018-12-25T14:01:04.036Z,103169.72
2018-12-25T14:03:33.378Z,103185.95
2018-12-25T14:06:02.648Z,103186.73
2018-12-25T14:08:31.959Z,103181.42
2018-12-25T14:11:01.202Z,103192.29
2018-12-25T14:13:30.439Z,103191.76
2018-12-25T14:15:59.770Z,103187.37
2018-12-25T14:18:29.108Z,103198.42
2018-12-25T14:20:58.366Z,103197.45
2018-12-25T14:23:27.750Z,103196.13
2018-12-25T14:25:57.038Z,103201.83
2018-12-25T14:28:26.354Z,103196.62
2018-12-25T14:30:55.661Z,103209.63
2018-12-25T14:33:24.925Z,103207.43
2018-12-25T14:35:54.460Z,103208.70
2018-12-25T14:38:23.771Z,103199.11
2018-12-25T14:40:53.061Z,103207.88
2018-12-25T14:43:22.308Z,103196.91
2018-12-25T14:45:51.682Z,103197.25
2018-12-25T14:48:20.986Z,103199.06
2018-12-25T14:50:50.222Z,103194.62
2018-12-25T14:53:20.059Z,103199.93
2018-12-25T14:55:48.754Z,103195.45
2018-12-25T14:58:18.200Z,103199.50
2018-12-25T15:00:47.482Z,103194.23
2018-12-25T15:03:16.805Z,103198.61
2018-12-25T15:05:46.066Z,103198.03
2018-12-25T15:08:15.373Z,103192.04
2018-12-25T15:10:44.670Z,103182.02
2018-12-25T15:13:13.960Z,103178.02
2018-12-25T15:15:43.227Z,103184.05
2018-12-25T15:18:12.580Z,103187.17
2018-12-25T15:20:42.020Z,103186.33
2018-12-25T15:23:11.320Z,103188.09
2018-12-25T15:25:40.756Z,103191.16
2018-12-25T15:28:10.072Z,103192.00
2018-12-25T15:30:39.392Z,103183.70
2018-12-25T15:33:08.768Z,103183.23
2018-12-25T15:35:38.083Z,103186.78
2018-12-25T15:38:07.381Z,103194.28
2018-12-25T15:40:36.662Z,103182.44
2018-12-25T15:43:05.883Z,103188.97
2018-12-25T15:45:35.208Z,103175.34
2018-12-25T15:48:04.610Z,103171.93
2018-12-25T15:50:33.870Z,103182.01
2018-12-25T15:53:03.196Z,103181.95
2018-12-25T15:55:32.479Z,103185.38
2018-12-25T15:58:01.750Z,103192.52
2018-12-25T16:00:32.037Z,103188.14
2018-12-25T16:03:00.302Z,103190.69
2018-12-25T16:05:29.716Z,103200.81
2018-12-25T16:07:59.004Z,103192.53
2018-12-25T16:10:28.339Z,103190.77
2018-12-25T16:12:57.603Z,103196.08
2018-12-25T16:15:26.924Z,103190.34
2018-12-25T16:17:56.288Z,103185.56
2018-12-25T16:20:25.543Z,103187.77
2018-12-25T16:22:54.812Z,103204.38
2018-12-25T16:25:24.108Z,103199.60
2018-12-25T16:27:53.376Z,103188.59
2018-12-25T16:30:22.609Z,103191.17
2018-12-25T16:32:51.923Z,103187.36
2018-12-25T16:35:21.692Z,103176.41
2018-12-25T16:37:51.054Z,103179.09
2018-12-25T16:40:20.317Z,103174.26
2018-12-25T16:42:49.571Z,103179.97
2018-12-25T16:45:18.821Z,103176.45
2018-12-25T16:47:48.124Z,103162.48
2018-12-25T16:50:17.441Z,103169.97
2018-12-25T16:52:46.731Z,103159.45
2018-12-25T16:55:16.040Z,103166.52
2018-12-25T16:57:45.330Z,103166.03
2018-12-25T17:00:14.658Z,103163.39
2018-12-25T17:02:43.924Z,103163.83
2018-12-25T17:05:13.205Z,103162.91
2018-12-25T17:07:42.536Z,103169.10
2018-12-25T17:10:11.797Z,103164.22
2018-12-25T17:12:41.047Z,103158.19
2018-12-25T17:15:10.364Z,103164.76
2018-12-25T17:17:39.653Z,103156.34
2018-12-25T17:20:09.138Z,103161.25
2018-12-25T17:22:38.495Z,103149.41
2018-12-25T17:25:07.744Z,103156.38
2018-12-25T17:27:37.014Z,103161.20
2018-12-25T17:30:07.664Z,103155.50
2018-12-25T17:32:36.989Z,103164.38
2018-12-25T17:35:06.242Z,103163.93
2018-12-25T17:37:35.600Z,103164.80
2018-12-25T17:40:04.875Z,103159.11
2018-12-25T17:42:34.143Z,103161.30
2018-12-25T17:45:03.490Z,103153.98
2018-12-25T17:47:32.741Z,103156.13
2018-12-25T17:50:02.018Z,103152.13
2018-12-25T17:52:31.245Z,103164.52
2018-12-25T17:55:00.507Z,103152.63
2018-12-25T17:57:29.756Z,103154.46
2018-12-25T17:59:59.122Z,103152.63
2018-12-25T18:02:28.342Z,103157.05
2018-12-25T18:04:57.705Z,103149.60
2018-12-25T18:07:26.931Z,103154.46
2018-12-25T18:09:56.240Z,103151.87
2018-12-25T18:12:25.502Z,103154.82
2018-12-25T18:14:54.761Z,103150.04
2018-12-25T18:17:23.995Z,103158.50
2018-12-25T18:19:53.290Z,103158.06
2018-12-25T18:22:22.633Z,103162.41
2018-12-25T18:24:52.118Z,103169.95
2018-12-25T18:27:21.429Z,103175.22
2018-12-25T18:29:50.676Z,103174.38
2018-12-25T18:32:20.017Z,103174.34
2018-12-25T18:34:49.262Z,103178.73
2018-12-25T18:37:18.562Z,103181.31
2018-12-25T18:39:56.035Z,103175.52
2018-12-25T18:42:25.321Z,103165.00
2018-12-25T18:44:54.590Z,103182.50
2018-12-25T18:47:23.881Z,103186.05
2018-12-25T18:49:53.155Z,103186.44
2018-12-25T18:52:22.507Z,103186.05
2018-12-25T18:54:51.687Z,103186.44
2018-12-25T18:57:20.988Z,103192.48
2018-12-25T18:59:50.279Z,103194.83
2018-12-25T19:02:19.558Z,103186.39
2018-12-25T19:04:49.038Z,103185.91
2018-12-25T19:07:18.303Z,103183.23
2018-12-25T19:09:47.578Z,103179.28
2018-12-25T19:12:16.864Z,103179.17
2018-12-25T19:14:57.376Z,103183.70
2018-12-25T19:17:26.903Z,103177.58
2018-12-25T19:19:56.178Z,103185.81
2018-12-25T19:22:25.491Z,103186.69
2018-12-25T19:24:54.774Z,103190.20
2018-12-25T19:27:24.048Z,103189.37
2018-12-25T19:29:53.334Z,103191.60
2018-12-25T19:32:22.642Z,103152.63
2018-12-25T19:34:51.988Z,103193.31
2018-12-25T19:37:21.272Z,103198.63
2018-12-25T19:39:50.540Z,103189.90
2018-12-25T19:42:19.822Z,103183.70
2018-12-25T19:44:49.108Z,103181.91
2018-12-25T19:47:18.492Z,103172.21
2018-12-25T19:49:47.808Z,103178.36
2018-12-25T19:52:17.193Z,103174.70
2018-12-25T19:54:46.511Z,103185.80
2018-12-25T19:57:15.762Z,103185.67
2018-12-25T19:59:45.064Z,103190.45
2018-12-25T20:02:14.321Z,103187.91
2018-12-25T20:05:24.169Z,103180.84
2018-12-25T20:08:24.945Z,103192.63
2018-12-25T20:11:31.908Z,103188.69
2018-12-25T20:14:42.628Z,103196.97
2018-12-25T20:17:59.730Z,103184.59
2018-12-25T20:21:13.192Z,103183.77
2018-12-25T20:24:23.563Z,103193.80
2018-12-25T20:27:33.314Z,103192.37
2018-12-25T20:30:43.430Z,103198.09
2018-12-25T20:33:45.624Z,103182.20
2018-12-25T20:36:51.814Z,103188.38
2018-12-25T20:39:54.017Z,103186.19
2018-12-25T20:42:49.010Z,103190.58
2018-12-25T20:46:18.737Z,103182.19
2018-12-25T20:49:43.295Z,103176.44
2018-12-25T20:52:30.845Z,103185.98
2018-12-25T20:55:43.884Z,103178.53
2018-12-25T20:58:42.044Z,103176.78
2018-12-25T21:01:59.178Z,103175.36
2018-12-25T21:05:05.946Z,103167.52
2018-12-25T21:08:15.628Z,103166.70
2018-12-25T21:11:37.838Z,103171.03
2018-12-25T21:14:43.425Z,103169.22
2018-12-25T21:18:10.508Z,103161.77
2018-12-25T21:21:19.674Z,103166.01
2018-12-25T21:24:25.640Z,103160.35
2018-12-25T21:27:31.757Z,103159.42
2018-12-25T21:30:05.937Z,103170.04
2018-12-25T21:32:40.236Z,103166.78
2018-12-25T21:35:13.542Z,103159.33
2018-12-25T21:37:42.830Z,103158.06
2018-12-25T21:40:12.212Z,103153.19
2018-12-25T21:42:41.407Z,103160.62
2018-12-25T21:45:10.726Z,103165.41
2018-12-25T21:47:41.311Z,103154.89
2018-12-25T21:50:09.300Z,103158.00
2018-12-25T21:52:38.880Z,103153.52
2018-12-25T21:55:09.361Z,103162.72
2018-12-25T21:57:38.816Z,103166.66
2018-12-25T22:00:10.832Z,103163.22
2018-12-25T22:02:40.956Z,103167.14
2018-12-25T22:05:10.225Z,103160.64
2018-12-25T22:07:39.583Z,103170.70
2018-12-25T22:10:09.115Z,103165.35
2018-12-25T22:12:38.417Z,103168.91
2018-12-25T22:15:08.931Z,103167.16
2018-12-25T22:17:38.250Z,103168.02
2018-12-25T22:20:26.660Z,103160.09
2018-12-25T22:22:55.986Z,103157.95
2018-12-25T22:25:27.278Z,103166.23
2018-12-25T22:27:54.550Z,103160.69
2018-12-25T22:30:23.911Z,103158.02
2018-12-25T22:32:53.217Z,103153.62
2018-12-25T22:35:22.575Z,103154.84
2018-12-25T22:37:51.843Z,103153.62
2018-12-25T22:40:21.186Z,103153.08
2018-12-25T22:42:50.491Z,103145.64
2018-12-25T22:45:19.733Z,103143.05
2018-12-25T22:47:49.122Z,103153.19
2018-12-25T22:50:18.419Z,103149.19
2018-12-25T22:52:47.778Z,103143.06
2018-12-25T22:55:17.161Z,103136.54
2018-12-25T22:57:46.536Z,103131.67
2018-12-25T23:00:15.747Z,103136.48
2018-12-25T23:02:45.000Z,103136.97
2018-12-25T23:05:14.275Z,103135.60
2018-12-25T23:07:43.563Z,103127.39
2018-12-25T23:10:12.889Z,103123.78
2018-12-25T23:12:42.151Z,103125.10
2018-12-25T23:15:11.442Z,103121.05
2018-12-25T23:17:40.768Z,103111.31
2018-12-25T23:20:10.047Z,103120.61
2018-12-25T23:22:39.374Z,103106.22
2018-12-25T23:25:08.768Z,103100.47
2018-12-25T23:27:38.103Z,103117.55
2018-12-25T23:30:07.366Z,103114.53
2018-12-25T23:32:36.712Z,103125.48
2018-12-25T23:35:06.101Z,103126.75
2018-12-25T23:37:35.372Z,103119.73
2018-12-25T23:40:05.915Z,103121.87
2018-12-25T23:42:34.164Z,103108.63
2018-12-25T23:45:03.394Z,103118.27
2018-12-25T23:47:32.661Z,103108.63
2018-12-25T23:50:01.986Z,103112.56
2018-12-25T23:52:31.254Z,103106.33
2018-12-25T23:55:00.552Z,103102.77
2018-12-25T23:57:29.827Z,103102.77
2018-12-25T23:59:59.239Z,103110.16
